Time;durP1;ratioP1;P1;durP2;ratioP2;P2;SDS_P1;SDS_P2;PMS_P1;PMS_P2;Temp;Humidity;BMP_temperature;BMP_pressure;BME280_temperature;BME280_humidity;BME280_pressure;Samples;Min_cycle;Max_cycle;Signal;HPM_P1;HPM_P2
2022/10/04 00:00:26;;;;;;;8.27;5.95;;;8.90;99.90;;;;;;5036536;28;20503;-74
2022/10/04 00:03:09;;;;;;;13.15;6.07;;;8.90;99.90;;;;;;5036667;28;20034;-74
2022/10/04 00:05:36;;;;;;;11.63;5.80;;;8.90;99.90;;;;;;5036480;28;20025;-69
2022/10/04 00:08:32;;;;;;;12.32;6.03;;;8.80;99.90;;;;;;5036589;28;20391;-70
2022/10/04 00:11:05;;;;;;;12.15;6.35;;;8.80;99.90;;;;;;5034474;28;20491;-73
2022/10/04 00:13:32;;;;;;;12.68;7.35;;;8.80;99.90;;;;;;5018730;28;20114;-74
2022/10/04 00:15:58;;;;;;;19.33;7.50;;;8.80;99.90;;;;;;5036126;28;20028;-73
2022/10/04 00:18:36;;;;;;;12.38;6.80;;;8.80;99.90;;;;;;5036367;28;20475;-74
2022/10/04 00:21:04;;;;;;;12.60;6.53;;;8.70;99.90;;;;;;5036164;28;20053;-73
2022/10/04 00:23:36;;;;;;;9.10;6.40;;;8.70;99.90;;;;;;5036304;28;20025;-69
2022/10/04 00:26:05;;;;;;;13.13;7.05;;;8.70;99.90;;;;;;5018300;28;20430;-74
2022/10/04 00:28:38;;;;;;;14.43;6.78;;;8.80;99.90;;;;;;5018466;28;20014;-74
2022/10/04 00:31:07;;;;;;;14.05;7.40;;;8.80;99.90;;;;;;5035858;28;20024;-69
2022/10/04 00:33:40;;;;;;;13.40;7.55;;;8.80;99.90;;;;;;5035978;28;20033;-74
2022/10/04 00:36:24;;;;;;;11.88;7.18;;;8.80;99.90;;;;;;5018342;28;20022;-74
2022/10/04 00:39:10;;;;;;;14.45;5.63;;;8.70;99.90;;;;;;5018213;28;20376;-69
2022/10/04 00:41:48;;;;;;;10.85;6.03;;;8.70;99.90;;;;;;5014941;28;20061;-69
2022/10/04 00:44:33;;;;;;;13.02;6.50;;;8.70;99.90;;;;;;5035901;28;20166;-74
2022/10/04 00:47:01;;;;;;;17.45;8.07;;;8.70;99.90;;;;;;5018020;28;20120;-74
2022/10/04 00:49:32;;;;;;;13.88;6.57;;;8.70;99.90;;;;;;5035561;28;20490;-69
2022/10/04 00:52:14;;;;;;;14.57;6.90;;;8.70;99.90;;;;;;5034754;28;20034;-74
2022/10/04 00:54:49;;;;;;;12.02;5.88;;;8.70;99.90;;;;;;5017804;28;20040;-69
2022/10/04 00:57:30;;;;;;;13.88;5.88;;;8.70;99.90;;;;;;5035589;28;20028;-74
2022/10/04 01:00:04;;;;;;;8.40;5.78;;;8.70;99.90;;;;;;5035459;28;20017;-73
2022/10/04 01:02:58;;;;;;;15.48;6.10;;;8.70;99.90;;;;;;5015403;28;20026;-74
2022/10/04 01:05:38;;;;;;;12.40;5.38;;;8.70;99.90;;;;;;5023620;28;20021;-74
2022/10/04 01:08:03;;;;;;;9.73;5.70;;;8.60;99.90;;;;;;5035281;28;20026;-69
2022/10/04 01:10:31;;;;;;;11.80;5.75;;;8.60;99.90;;;;;;5035336;28;20029;-69
2022/10/04 01:13:11;;;;;;;9.48;5.95;;;8.60;99.90;;;;;;5035257;28;20044;-68
2022/10/04 01:16:20;;;;;;;12.90;5.43;;;8.60;99.90;;;;;;5035272;28;20013;-73
2022/10/04 01:18:46;;;;;;;11.40;6.13;;;8.60;99.90;;;;;;5034526;28;20037;-68
2022/10/04 01:21:20;;;;;;;10.98;5.72;;;8.60;99.90;;;;;;5034963;28;20183;-69
2022/10/04 01:23:58;;;;;;;16.30;5.82;;;8.60;99.90;;;;;;5035119;28;20029;-69
2022/10/04 01:26:31;;;;;;;8.52;5.28;;;8.50;99.90;;;;;;5034911;28;20395;-69
2022/10/04 01:29:12;;;;;;;9.85;5.75;;;8.60;99.90;;;;;;5034884;28;20030;-74
2022/10/04 01:31:46;;;;;;;17.20;7.15;;;8.60;99.90;;;;;;5035000;28;20499;-73
2022/10/04 01:34:16;;;;;;;13.35;6.43;;;8.50;99.90;;;;;;5017455;28;20082;-68
2022/10/04 01:36:43;;;;;;;11.68;6.13;;;8.50;99.90;;;;;;5034751;28;20029;-74
2022/10/04 01:39:09;;;;;;;21.98;6.68;;;8.50;99.90;;;;;;5034352;28;20036;-74
2022/10/04 01:42:03;;;;;;;11.82;5.95;;;8.50;99.90;;;;;;5016837;28;20029;-69
2022/10/04 01:44:46;;;;;;;10.90;5.47;;;8.50;99.90;;;;;;5016990;28;20483;-74
2022/10/04 01:47:44;;;;;;;;;;;8.50;99.90;;;;;;5017339;28;20025;-73
2022/10/04 01:50:23;;;;;;;12.90;5.50;;;8.50;99.90;;;;;;4953406;28;19909;-69
2022/10/04 01:52:54;;;;;;;13.77;6.45;;;8.50;99.90;;;;;;5034545;28;20072;-69
2022/10/04 01:55:34;;;;;;;11.23;6.35;;;8.50;99.90;;;;;;5034546;28;20013;-69
2022/10/04 01:58:28;;;;;;;17.67;5.78;;;8.50;99.90;;;;;;5034424;28;20026;-69
2022/10/04 02:00:59;;;;;;;8.95;6.07;;;8.40;99.90;;;;;;5010709;28;20125;-69
2022/10/04 02:03:31;;;;;;;20.30;5.60;;;8.50;99.90;;;;;;5034057;28;20116;-74
2022/10/04 02:06:01;;;;;;;12.10;6.03;;;8.40;99.90;;;;;;5016453;28;20021;-73
2022/10/04 02:08:30;;;;;;;11.43;7.28;;;8.40;99.90;;;;;;5034284;28;20387;-74
2022/10/04 02:10:57;;;;;;;13.10;5.63;;;8.40;99.90;;;;;;5016367;28;20384;-69
2022/10/04 02:13:28;;;;;;;9.02;5.82;;;8.40;99.90;;;;;;5034000;28;20628;-74
2022/10/04 02:15:54;;;;;;;13.40;5.35;;;8.40;99.90;;;;;;5034123;28;20497;-69
2022/10/04 02:18:22;;;;;;;13.23;5.85;;;8.40;99.90;;;;;;5033955;28;20018;-70
2022/10/04 02:20:49;;;;;;;11.77;4.55;;;8.40;99.90;;;;;;5016055;28;20057;-74
2022/10/04 02:23:18;;;;;;;11.43;4.43;;;8.40;99.90;;;;;;5033891;28;20018;-74
2022/10/04 02:25:44;;;;;;;5.47;3.88;;;8.30;99.90;;;;;;5033861;28;20035;-74
2022/10/04 02:28:12;;;;;;;7.28;4.68;;;8.30;99.90;;;;;;5015951;28;20018;-69
2022/10/04 02:32:56;;;;;;;6.10;3.97;;;8.30;99.90;;;;;;5033727;28;20036;-74
2022/10/04 02:33:30;;;;;;;9.05;4.00;;;8.20;99.90;;;;;;5033639;28;20391;-69
2022/10/04 02:35:57;;;;;;;8.05;4.18;;;8.20;99.90;;;;;;5033735;28;20025;-74
2022/10/04 02:38:30;;;;;;;8.05;5.07;;;8.20;99.90;;;;;;5016074;28;20402;-69
2022/10/04 02:41:01;;;;;;;11.13;4.20;;;8.10;99.90;;;;;;5033639;28;20036;-69
2022/10/04 02:43:42;;;;;;;11.60;4.88;;;8.10;99.90;;;;;;5033796;28;20026;-74
2022/10/04 02:46:17;;;;;;;9.93;4.78;;;8.10;99.90;;;;;;5033625;28;20057;-69
2022/10/04 02:48:52;;;;;;;8.90;4.95;;;8.10;99.90;;;;;;5033461;28;20022;-69
2022/10/04 02:51:39;;;;;;;6.07;3.80;;;8.00;99.90;;;;;;5015626;28;20120;-69
2022/10/04 02:54:20;;;;;;;13.30;4.68;;;8.00;99.90;;;;;;5033443;28;20431;-73
2022/10/04 02:56:52;;;;;;;7.65;4.40;;;8.00;99.90;;;;;;5033478;28;20487;-74
2022/10/04 02:59:18;;;;;;;14.20;5.82;;;8.00;99.90;;;;;;5033470;28;20029;-73
2022/10/04 03:02:00;;;;;;;10.05;4.63;;;8.00;99.90;;;;;;5033328;28;20091;-74
2022/10/04 03:04:32;;;;;;;14.30;4.80;;;8.00;99.90;;;;;;5033423;28;20017;-69
2022/10/04 03:07:01;;;;;;;10.48;5.55;;;8.00;99.90;;;;;;5033188;28;20056;-74
2022/10/04 03:09:28;;;;;;;8.25;5.40;;;8.00;99.90;;;;;;5033291;28;20390;-74
2022/10/04 03:11:54;;;;;;;12.77;5.53;;;8.10;99.90;;;;;;5015358;28;20037;-69
2022/10/04 03:14:24;;;;;;;12.45;5.60;;;8.10;99.90;;;;;;5015453;28;20045;-74
2022/10/04 03:16:53;;;;;;;11.88;5.18;;;8.10;99.90;;;;;;5032525;28;20049;-69
2022/10/04 03:19:21;;;;;;;15.25;6.35;;;8.10;99.90;;;;;;5032950;28;20044;-69
2022/10/04 03:21:50;;;;;;;11.82;5.20;;;8.20;99.90;;;;;;5033138;28;20135;-74
2022/10/04 03:24:53;;;;;;;9.70;5.40;;;8.20;99.90;;;;;;5032919;28;20053;-72
2022/10/04 03:27:23;;;;;;;11.60;5.25;;;8.20;99.90;;;;;;4952799;29;20127;-73
2022/10/04 03:29:49;;;;;;;11.10;5.40;;;8.30;99.90;;;;;;5003436;28;20049;-74
2022/10/04 03:32:17;;;;;;;9.10;4.93;;;8.30;99.90;;;;;;5010707;28;20037;-70
2022/10/04 03:34:59;;;;;;;16.25;5.68;;;8.30;99.90;;;;;;5033011;28;20018;-74
2022/10/04 03:37:28;;;;;;;12.18;5.47;;;8.30;99.90;;;;;;5032887;28;20027;-74
2022/10/04 03:39:55;;;;;;;11.32;5.63;;;8.30;99.90;;;;;;5033034;28;20533;-74
2022/10/04 03:42:33;;;;;;;10.57;4.88;;;8.30;99.90;;;;;;5032938;28;20052;-74
2022/10/04 03:45:02;;;;;;;13.15;5.97;;;8.30;99.90;;;;;;5033073;28;20033;-68
2022/10/04 03:47:39;;;;;;;9.45;5.10;;;8.30;99.90;;;;;;5015084;28;20384;-69
2022/10/04 03:50:20;;;;;;;7.47;4.88;;;8.30;99.90;;;;;;5032953;28;20051;-69
2022/10/04 03:52:52;;;;;;;12.88;5.65;;;8.30;99.90;;;;;;5032808;28;20395;-74
2022/10/04 03:55:19;;;;;;;9.48;5.13;;;8.30;99.90;;;;;;5032920;28;20026;-69
2022/10/04 03:57:45;;;;;;;15.65;5.47;;;8.30;99.90;;;;;;5032675;28;20029;-73
2022/10/04 04:00:17;;;;;;;16.20;5.65;;;8.40;99.90;;;;;;5032852;28;20034;-73
2022/10/04 04:02:50;;;;;;;9.05;5.95;;;8.30;99.90;;;;;;5032176;28;20021;-69
2022/10/04 04:05:45;;;;;;;13.00;5.93;;;8.30;99.90;;;;;;5015118;28;20053;-74
2022/10/04 04:08:13;;;;;;;11.90;5.68;;;8.30;99.90;;;;;;5032716;28;20083;-69
2022/10/04 04:10:54;;;;;;;17.35;5.88;;;8.30;99.90;;;;;;5032627;28;20394;-74
2022/10/04 04:13:26;;;;;;;8.65;5.22;;;8.30;99.90;;;;;;5032644;28;20184;-69
2022/10/04 04:15:54;;;;;;;12.82;5.45;;;8.30;99.90;;;;;;5014832;28;20079;-69
2022/10/04 04:18:26;;;;;;;12.63;6.43;;;8.40;99.90;;;;;;5032503;28;20025;-69
2022/10/04 04:20:57;;;;;;;58.13;29.73;;;8.40;99.90;;;;;;5032484;28;20446;-69
2022/10/04 04:23:31;;;;;;;77.05;39.60;;;8.40;99.90;;;;;;5032501;28;20072;-74
2022/10/04 04:26:13;;;;;;;25.70;14.55;;;8.40;99.90;;;;;;5032438;28;20475;-74
2022/10/04 04:28:47;;;;;;;44.47;27.65;;;8.40;99.90;;;;;;5036326;28;20050;-69
2022/10/04 04:31:25;;;;;;;39.70;20.95;;;8.40;99.90;;;;;;5036136;28;20487;-69
2022/10/04 04:33:56;;;;;;;43.55;22.27;;;8.40;99.90;;;;;;5018313;28;20128;-68
2022/10/04 04:36:22;;;;;;;32.15;12.18;;;8.40;99.90;;;;;;5035960;28;20021;-74
2022/10/04 04:41:36;;;;;;;11.20;6.40;;;8.30;99.90;;;;;;5035876;28;20033;-69
2022/10/04 04:44:02;;;;;;;20.98;9.15;;;8.30;99.90;;;;;;5035678;28;20065;-74
2022/10/04 04:46:29;;;;;;;23.08;7.63;;;8.40;99.90;;;;;;5035816;28;20028;-74
2022/10/04 04:49:01;;;;;;;38.97;10.85;;;8.40;99.90;;;;;;5017876;28;20021;-68
2022/10/04 04:51:28;;;;;;;25.77;8.75;;;8.40;99.90;;;;;;5035592;28;20017;-69
2022/10/04 04:53:55;;;;;;;21.95;8.35;;;8.40;99.90;;;;;;5017893;28;20109;-69
2022/10/04 04:56:26;;;;;;;21.67;7.35;;;8.40;99.90;;;;;;5035468;28;20021;-74
2022/10/04 04:58:54;;;;;;;19.75;7.60;;;8.40;99.90;;;;;;5017695;28;20541;-74
2022/10/04 05:01:40;;;;;;;10.52;5.38;;;8.40;99.90;;;;;;5037637;28;20056;-68
2022/10/04 05:04:11;;;;;;;11.73;5.40;;;8.40;99.90;;;;;;5055292;28;20021;-69
2022/10/04 05:06:42;;;;;;;22.13;8.25;;;8.40;99.90;;;;;;5050332;28;20460;-74
2022/10/04 05:09:27;;;;;;;24.83;10.15;;;8.40;99.90;;;;;;5035365;28;20029;-74
2022/10/04 05:12:00;;;;;;;19.75;6.47;;;8.40;99.90;;;;;;5035007;28;20030;-69
2022/10/04 05:14:31;;;;;;;22.02;8.68;;;8.40;99.90;;;;;;5014285;28;20014;-74
2022/10/04 05:16:57;;;;;;;24.25;9.32;;;8.40;99.90;;;;;;5004030;28;20022;-74
2022/10/04 05:19:30;;;;;;;15.90;6.05;;;8.40;99.90;;;;;;5016114;28;20029;-74
2022/10/04 05:21:59;;;;;;;15.65;5.57;;;8.40;99.90;;;;;;5033287;28;20522;-69
2022/10/04 05:24:35;;;;;;;11.65;5.40;;;8.40;99.90;;;;;;5033172;28;20087;-68
2022/10/04 05:27:04;;;;;;;20.60;8.13;;;8.40;99.90;;;;;;5034138;28;20027;-68
2022/10/04 05:29:36;;;;;;;24.70;8.07;;;8.40;99.90;;;;;;5034164;28;20550;-69
2022/10/04 05:32:20;;;;;;;14.25;6.80;;;8.50;99.90;;;;;;5033509;28;20072;-73
2022/10/04 05:34:48;;;;;;;18.13;9.00;;;8.50;99.90;;;;;;5032934;28;20480;-74
2022/10/04 05:37:33;;;;;;;14.65;6.47;;;8.40;99.90;;;;;;5033998;28;20526;-74
2022/10/04 05:40:13;;;;;;;13.93;7.47;;;8.40;99.90;;;;;;5025573;28;20400;-68
2022/10/04 05:42:45;;;;;;;11.77;5.95;;;8.40;99.90;;;;;;5032978;28;20025;-69
2022/10/04 05:45:24;;;;;;;15.55;7.43;;;8.40;99.90;;;;;;5014684;28;20476;-69
2022/10/04 05:47:52;;;;;;;11.27;5.50;;;8.40;99.90;;;;;;5033216;28;20033;-74
2022/10/04 05:50:29;;;;;;;10.57;6.15;;;8.50;99.90;;;;;;5033545;28;20504;-69
2022/10/04 05:53:14;;;;;;;10.93;6.53;;;8.40;99.90;;;;;;5033185;28;20087;-70
2022/10/04 05:56:17;;;;;;;14.38;6.72;;;8.40;99.90;;;;;;5032445;28;20495;-74
2022/10/04 05:59:07;;;;;;;14.63;5.63;;;8.40;99.90;;;;;;5032012;28;20030;-74
2022/10/04 06:01:55;;;;;;;12.88;5.78;;;8.40;99.90;;;;;;5027382;28;20487;-74
2022/10/04 06:04:32;;;;;;;14.27;6.15;;;8.50;99.90;;;;;;5025828;28;20037;-74
2022/10/04 06:07:03;;;;;;;10.15;5.43;;;8.50;99.90;;;;;;5030650;28;20041;-74
2022/10/04 06:09:37;;;;;;;13.60;6.32;;;8.50;99.90;;;;;;5032538;28;20025;-70
2022/10/04 06:12:03;;;;;;;14.18;6.10;;;8.50;99.90;;;;;;5032945;28;20084;-69
2022/10/04 06:14:41;;;;;;;14.55;6.07;;;8.60;99.90;;;;;;5011929;28;20057;-69
2022/10/04 06:17:42;;;;;;;12.65;5.90;;;8.60;99.90;;;;;;5021230;28;20097;-69
2022/10/04 06:20:14;;;;;;;13.02;6.53;;;8.60;99.90;;;;;;5014828;28;20057;-69
2022/10/04 06:22:47;;;;;;;15.75;7.35;;;8.60;99.90;;;;;;5032630;28;20114;-74
2022/10/04 06:25:25;;;;;;;16.73;8.32;;;8.60;99.90;;;;;;5032143;28;20030;-69
2022/10/04 06:28:10;;;;;;;12.70;5.97;;;8.70;99.90;;;;;;5033553;28;20025;-74
2022/10/04 06:31:12;;;;;;;15.90;5.40;;;8.70;99.90;;;;;;5035881;28;20463;-74
2022/10/04 06:33:46;;;;;;;14.32;5.93;;;8.70;99.90;;;;;;5036830;28;20048;-69
2022/10/04 06:36:41;;;;;;;12.80;5.30;;;8.70;99.90;;;;;;5016271;28;20468;-74
2022/10/04 06:39:22;;;;;;;17.27;5.43;;;8.70;99.90;;;;;;5016231;28;20032;-73
2022/10/04 06:41:59;;;;;;;10.02;5.53;;;8.70;99.90;;;;;;5033829;28;20029;-69
2022/10/04 06:44:31;;;;;;;13.77;6.13;;;8.70;99.90;;;;;;5032456;28;20025;-69
2022/10/04 06:47:09;;;;;;;17.33;8.05;;;8.70;99.90;;;;;;5030077;28;20029;-73
2022/10/04 06:49:47;;;;;;;15.50;6.78;;;8.80;99.90;;;;;;5029674;28;20025;-68
2022/10/04 06:52:26;;;;;;;16.75;5.93;;;8.80;99.90;;;;;;5030372;28;20651;-73
2022/10/04 06:55:15;;;;;;;12.52;6.20;;;8.80;99.90;;;;;;5030525;28;20021;-69
2022/10/04 06:57:53;;;;;;;14.52;6.05;;;8.90;99.90;;;;;;5012416;28;20053;-68
2022/10/04 07:00:26;;;;;;;10.05;6.00;;;8.90;99.90;;;;;;5031564;28;20475;-73
2022/10/04 07:03:03;;;;;;;13.27;6.28;;;9.00;99.90;;;;;;5033502;28;20453;-69
2022/10/04 07:06:03;;;;;;;10.65;5.60;;;9.00;99.90;;;;;;5033589;28;20096;-73
2022/10/04 07:08:33;;;;;;;13.13;5.88;;;9.10;99.90;;;;;;5033614;28;20040;-73
2022/10/04 07:11:22;;;;;;;15.52;6.50;;;9.10;99.90;;;;;;5015579;28;20037;-73
2022/10/04 07:14:11;;;;;;;13.57;6.15;;;9.20;99.90;;;;;;5021541;28;20056;-69
2022/10/04 07:16:47;;;;;;;16.20;6.10;;;9.20;99.90;;;;;;5015622;28;20028;-73
2022/10/04 07:19:19;;;;;;;11.18;5.68;;;9.20;99.90;;;;;;5033209;28;20391;-74
2022/10/04 07:22:00;;;;;;;12.52;5.80;;;9.20;99.90;;;;;;5033272;28;20049;-69
2022/10/04 07:25:02;;;;;;;15.15;5.25;;;9.20;99.90;;;;;;5033035;28;20041;-69
2022/10/04 07:29:19;;;;;;;9.32;4.80;;;9.20;99.90;;;;;;5033178;28;20266;-69
2022/10/04 07:30:40;;;;;;;14.70;5.13;;;9.10;99.90;;;;;;5033077;28;20025;-69
2022/10/04 07:33:11;;;;;;;14.73;5.43;;;9.10;99.90;;;;;;5015408;28;20495;-69
2022/10/04 07:36:08;;;;;;;10.85;4.88;;;9.20;99.90;;;;;;5033211;28;20048;-73
2022/10/04 07:38:52;;;;;;;14.20;6.35;;;9.20;99.90;;;;;;5015382;28;20429;-74
2022/10/04 07:41:34;;;;;;;12.82;5.35;;;9.20;99.90;;;;;;5015065;28;20083;-74
2022/10/04 07:44:26;;;;;;;8.35;4.90;;;9.30;99.90;;;;;;5015254;28;20021;-69
2022/10/04 07:47:11;;;;;;;13.68;5.57;;;9.30;99.90;;;;;;5033085;28;20029;-73
2022/10/04 07:49:38;;;;;;;9.68;5.20;;;9.30;99.90;;;;;;5033029;28;20148;-69
2022/10/04 07:52:28;;;;;;;14.80;5.75;;;9.30;99.90;;;;;;5032879;28;20087;-73
2022/10/04 07:55:43;;;;;;;13.57;6.25;;;9.30;99.90;;;;;;5033151;28;20030;-74
2022/10/04 07:58:24;;;;;;;17.77;6.78;;;9.40;99.90;;;;;;5020161;28;20037;-74
2022/10/04 08:00:58;;;;;;;84.03;36.08;;;9.40;99.90;;;;;;5015225;28;20080;-71
2022/10/04 08:03:45;;;;;;;62.58;28.25;;;9.40;99.90;;;;;;5018395;28;20033;-69
2022/10/04 08:06:19;;;;;;;19.35;7.13;;;9.50;99.90;;;;;;5036991;28;20030;-68
2022/10/04 08:08:53;;;;;;;12.68;6.43;;;9.40;99.90;;;;;;5036653;28;20022;-69
2022/10/04 08:11:18;;;;;;;13.70;5.50;;;9.50;99.90;;;;;;5018751;28;20116;-69
2022/10/04 08:13:54;;;;;;;12.77;6.88;;;9.50;99.90;;;;;;5036500;28;20121;-69
2022/10/04 08:16:39;;;;;;;14.48;7.40;;;9.50;99.90;;;;;;5036520;28;20028;-68
2022/10/04 08:19:23;;;;;;;14.98;5.55;;;9.50;99.90;;;;;;5036302;28;20501;-69
2022/10/04 08:22:04;;;;;;;11.23;5.32;;;9.60;99.90;;;;;;5036451;28;20041;-69
2022/10/04 08:25:10;;;;;;;13.52;5.68;;;9.60;99.90;;;;;;5036475;28;20029;-73
2022/10/04 08:30:57;;;;;;;9.60;6.05;;;9.80;99.90;;;;;;5036401;28;20387;-74
2022/10/04 08:33:35;;;;;;;11.77;5.72;;;9.80;99.90;;;;;;5018183;28;20037;-74
2022/10/04 08:36:13;;;;;;;12.13;5.47;;;9.90;99.90;;;;;;5036202;28;20096;-69
2022/10/04 08:38:59;;;;;;;12.80;5.32;;;9.90;99.90;;;;;;5018405;28;20477;-74
2022/10/04 08:41:33;;;;;;;11.57;5.60;;;10.20;99.90;;;;;;5036125;28;20049;-69
2022/10/04 08:44:48;;;;;;;7.13;4.65;;;10.60;99.90;;;;;;5035928;28;20095;-73
2022/10/04 08:47:37;;;;;;;9.85;4.32;;;10.70;99.90;;;;;;5035880;28;20045;-69
2022/10/04 08:50:31;;;;;;;8.13;4.68;;;10.80;99.90;;;;;;5035756;28;20033;-74
2022/10/04 08:53:15;;;;;;;8.43;3.60;;;10.70;99.90;;;;;;5017978;28;20033;-69
2022/10/04 08:56:09;;;;;;;9.07;3.88;;;10.60;99.90;;;;;;5035819;28;20026;-74
2022/10/04 08:58:46;;;;;;;12.45;4.40;;;10.70;99.90;;;;;;5018023;28;20022;-74
2022/10/04 09:01:38;;;;;;;7.43;3.75;;;10.60;99.90;;;;;;5017841;28;20089;-68
2022/10/04 09:04:28;;;;;;;6.85;4.20;;;10.60;99.90;;;;;;5017662;28;20028;-69
2022/10/04 09:07:27;;;;;;;10.82;4.88;;;10.70;99.90;;;;;;5035650;28;20029;-69
2022/10/04 09:10:33;;;;;;;12.48;5.13;;;10.70;99.90;;;;;;5017393;28;20025;-68
2022/10/04 09:13:04;;;;;;;8.48;3.78;;;10.80;99.90;;;;;;5034450;28;20103;-69
2022/10/04 09:15:52;;;;;;;10.93;4.28;;;10.80;99.90;;;;;;5035322;28;20109;-73
2022/10/04 09:18:48;;;;;;;5.45;3.40;;;10.90;99.90;;;;;;5035165;28;20194;-69
2022/10/04 09:21:27;;;;;;;9.07;4.63;;;10.90;99.90;;;;;;5035270;28;20138;-69
2022/10/04 09:23:55;;;;;;;7.85;3.45;;;11.10;99.90;;;;;;5035120;28;20033;-69
2022/10/04 09:26:32;;;;;;;5.28;2.88;;;11.20;99.90;;;;;;5035157;28;20021;-74
2022/10/04 09:29:22;;;;;;;5.15;2.78;;;11.20;99.90;;;;;;5035182;28;20524;-74
2022/10/04 09:31:59;;;;;;;7.28;3.47;;;11.10;99.90;;;;;;5017324;28;20063;-69
2022/10/04 09:34:42;;;;;;;7.40;3.55;;;11.00;99.90;;;;;;5034973;28;20061;-68
2022/10/04 09:37:47;;;;;;;8.43;3.50;;;11.00;99.90;;;;;;5035232;28;20037;-69
2022/10/04 09:40:36;;;;;;;6.40;2.88;;;10.80;99.90;;;;;;5034886;28;20488;-68
2022/10/04 09:43:22;;;;;;;6.93;2.80;;;10.80;99.90;;;;;;5034776;28;20424;-68
2022/10/04 09:46:10;;;;;;;8.25;2.67;;;10.70;99.90;;;;;;5017216;28;20033;-74
2022/10/04 09:49:09;;;;;;;5.00;2.95;;;10.80;99.90;;;;;;5017027;28;20025;-74
2022/10/04 09:51:34;;;;;;;7.82;2.85;;;10.80;99.90;;;;;;5017008;28;20037;-74
2022/10/04 09:54:29;;;;;;;5.30;2.70;;;10.80;99.90;;;;;;5034684;28;20514;-74
2022/10/04 09:57:01;;;;;;;6.53;2.40;;;10.90;99.90;;;;;;5028878;28;20083;-69
2022/10/04 09:59:36;;;;;;;5.53;2.72;;;10.90;99.90;;;;;;5034710;28;20018;-69
2022/10/04 10:02:29;;;;;;;6.45;2.67;;;11.00;99.90;;;;;;5034600;28;20116;-74
2022/10/04 10:05:07;;;;;;;11.07;2.95;;;11.20;99.90;;;;;;5034629;28;20029;-69
2022/10/04 10:08:13;;;;;;;4.63;2.70;;;11.30;99.90;;;;;;5016739;28;20026;-74
2022/10/04 10:14:20;;;;;;;7.68;2.50;;;11.60;99.90;;;;;;5022111;28;20541;-74
2022/10/04 10:17:14;;;;;;;6.13;2.90;;;11.60;99.90;;;;;;5034247;28;20025;-74
2022/10/04 10:20:10;;;;;;;4.13;2.30;;;11.60;99.90;;;;;;5016291;28;20041;-74
2022/10/04 10:23:12;;;;;;;4.07;2.15;;;11.60;99.90;;;;;;5034331;28;20026;-74
2022/10/04 10:25:37;;;;;;;6.20;2.15;;;11.70;99.90;;;;;;5014226;28;20109;-69
2022/10/04 10:28:10;;;;;;;5.13;2.30;;;11.80;99.90;;;;;;5005857;28;20112;-74
2022/10/04 10:30:54;;;;;;;4.18;2.35;;;11.80;99.90;;;;;;5014459;28;20026;-68
2022/10/04 10:33:39;;;;;;;3.20;2.08;;;12.00;99.90;;;;;;5015178;28;20038;-74
2022/10/04 10:36:27;;;;;;;2.90;2.05;;;12.10;99.90;;;;;;5033941;28;20053;-69
2022/10/04 10:39:17;;;;;;;4.30;1.88;;;12.00;99.90;;;;;;5033645;28;20060;-69
2022/10/04 10:42:16;;;;;;;3.60;1.80;;;11.90;99.90;;;;;;5033838;28;20022;-69
2022/10/04 10:45:04;;;;;;;8.60;2.58;;;11.90;99.90;;;;;;5033974;28;20025;-74
2022/10/04 10:47:49;;;;;;;4.80;2.08;;;11.90;99.90;;;;;;5033830;28;20045;-74
2022/10/04 10:50:58;;;;;;;5.88;1.80;;;12.00;99.90;;;;;;5033721;28;20112;-74
2022/10/04 10:54:04;;;;;;;9.82;3.80;;;12.00;99.90;;;;;;5033700;28;20040;-74
2022/10/04 10:56:48;;;;;;;8.23;2.50;;;12.20;99.90;;;;;;5015962;28;20034;-74
2022/10/04 10:59:38;;;;;;;9.88;2.55;;;12.20;99.90;;;;;;5015540;28;20136;-69
2022/10/04 11:02:04;;;;;;;7.00;2.88;;;12.30;99.90;;;;;;5015892;28;20026;-74
2022/10/04 11:05:09;;;;;;;2.78;2.58;;;12.30;99.90;;;;;;5033432;28;20546;-73
2022/10/04 11:07:50;;;;;;;1.73;1.63;;;12.30;99.90;;;;;;5013112;28;20048;-74
2022/10/04 11:10:28;;;;;;;4.93;1.88;;;12.40;99.90;;;;;;5033486;28;20563;-74
2022/10/04 11:13:05;;;;;;;13.65;5.72;;;12.60;99.90;;;;;;5033311;28;20033;-69
2022/10/04 11:16:06;;;;;;;3.22;1.80;;;12.80;99.90;;;;;;5015661;28;20500;-66
2022/10/04 11:18:57;;;;;;;2.58;1.65;;;12.80;96.90;;;;;;5033178;28;20022;-66
2022/10/04 11:21:50;;;;;;;3.80;1.80;;;12.90;98.10;;;;;;5033301;28;20048;-72
2022/10/04 11:24:31;;;;;;;4.38;1.60;;;12.70;91.20;;;;;;5033088;28;20060;-72
2022/10/04 11:26:59;;;;;;;1.35;1.23;;;12.70;92.70;;;;;;5033163;28;20100;-72
2022/10/04 11:29:31;;;;;;;7.20;1.75;;;12.70;95.00;;;;;;5033053;28;20539;-72
2022/10/04 11:31:59;;;;;;;1.42;1.02;;;12.80;89.60;;;;;;5033260;28;20029;-72
2022/10/04 11:35:02;;;;;;;5.88;2.67;;;12.90;87.00;;;;;;5015197;28;20388;-72
2022/10/04 11:37:49;;;;;;;3.08;2.20;;;13.00;88.50;;;;;;5035407;28;20509;-72
2022/10/04 11:40:38;;;;;;;3.28;2.13;;;13.00;92.60;;;;;;5019424;28;20025;-66
2022/10/04 11:43:35;;;;;;;3.92;2.35;;;13.10;95.80;;;;;;5037109;28;20022;-72
2022/10/04 11:46:42;;;;;;;2.85;2.10;;;13.30;95.60;;;;;;5019449;28;20500;-66
2022/10/04 11:49:25;;;;;;;3.42;1.60;;;13.50;97.10;;;;;;5036989;28;20431;-72
2022/10/04 11:51:57;;;;;;;4.18;1.45;;;13.60;90.40;;;;;;5037106;28;20025;-66
2022/10/04 11:55:07;;;;;;;4.05;1.60;;;13.70;91.60;;;;;;5036947;28;20497;-72
2022/10/04 11:58:08;;;;;;;3.60;1.42;;;13.80;88.20;;;;;;5037064;28;20033;-66
2022/10/04 12:01:19;;;;;;;2.13;0.88;;;13.70;80.70;;;;;;5015792;28;20148;-72
2022/10/04 12:04:03;;;;;;;4.40;2.08;;;13.20;72.80;;;;;;5036869;28;20032;-72
2022/10/04 12:07:07;;;;;;;4.65;1.80;;;13.00;77.30;;;;;;5036930;28;20075;-66
2022/10/04 12:09:39;;;;;;;;;;;12.90;78.00;;;;;;5037022;28;20022;-72
2022/10/04 12:12:36;;;;;;;2.80;1.40;;;12.80;78.30;;;;;;5018877;28;19924;-71
2022/10/04 12:15:39;;;;;;;3.88;1.33;;;12.80;76.80;;;;;;5036468;28;20030;-67
2022/10/04 12:18:20;;;;;;;2.58;1.38;;;12.90;77.00;;;;;;5036487;28;20017;-72
2022/10/04 12:20:52;;;;;;;2.25;1.13;;;12.90;76.30;;;;;;5036389;28;20052;-66
2022/10/04 12:23:55;;;;;;;2.58;0.80;;;13.10;78.30;;;;;;5036366;28;20032;-67
2022/10/04 12:26:48;;;;;;;1.38;1.00;;;13.20;73.80;;;;;;5005887;28;20060;-72
2022/10/04 12:29:14;;;;;;;;;;;13.40;74.70;;;;;;5018705;28;20056;-67
2022/10/04 12:31:54;;;;;;;3.25;1.30;;;13.50;72.60;;;;;;5036449;28;19959;-66
2022/10/04 12:34:46;;;;;;;4.18;1.50;;;13.40;72.60;;;;;;5036183;28;20037;-66
2022/10/04 12:37:17;;;;;;;4.63;2.10;;;13.50;73.90;;;;;;5036325;28;20091;-67
2022/10/04 12:39:57;;;;;;;5.75;2.40;;;13.30;78.10;;;;;;5036019;28;20025;-66
2022/10/04 12:42:38;;;;;;;3.47;1.75;;;12.90;80.60;;;;;;5036280;28;20045;-67
2022/10/04 12:45:19;;;;;;;3.28;1.98;;;12.70;85.00;;;;;;5035877;28;20029;-72
2022/10/04 12:47:53;;;;;;;4.65;2.10;;;12.60;89.10;;;;;;5035031;28;20033;-67
2022/10/04 12:50:59;;;;;;;3.30;1.77;;;12.70;88.00;;;;;;5034540;28;20040;-66
2022/10/04 12:53:37;;;;;;;2.55;1.63;;;12.90;84.70;;;;;;5035016;28;20035;-66
2022/10/04 12:56:12;;;;;;;2.75;1.60;;;13.20;87.50;;;;;;5035162;28;20071;-67
2022/10/04 12:59:08;;;;;;;3.33;1.80;;;13.20;80.00;;;;;;5035099;28;20364;-72
2022/10/04 13:02:01;;;;;;;3.38;1.27;;;13.30;82.80;;;;;;5035113;28;20480;-67
2022/10/04 13:04:38;;;;;;;4.00;1.45;;;13.00;73.40;;;;;;5035549;28;20104;-66
2022/10/04 13:07:28;;;;;;;2.30;1.60;;;12.90;74.00;;;;;;5035737;28;20057;-67
2022/10/04 13:10:28;;;;;;;5.63;1.40;;;13.00;75.80;;;;;;5035310;28;20032;-67
2022/10/04 13:13:13;;;;;;;1.92;1.27;;;13.20;74.40;;;;;;5017891;28;20458;-73
2022/10/04 13:15:44;;;;;;;2.80;1.20;;;13.20;73.50;;;;;;5035380;28;20033;-67
2022/10/04 13:18:25;;;;;;;3.42;1.38;;;13.30;73.50;;;;;;5017794;28;20458;-68
2022/10/04 13:21:16;;;;;;;4.75;1.90;;;13.50;75.60;;;;;;5035272;28;20053;-73
2022/10/04 13:23:56;;;;;;;1.92;1.20;;;13.70;74.40;;;;;;5035108;28;20068;-67
2022/10/04 13:26:37;;;;;;;1.27;1.17;;;13.70;70.70;;;;;;5017423;28;20029;-73
2022/10/04 13:29:14;;;;;;;1.33;1.17;;;13.70;70.30;;;;;;5017379;28;20028;-67
2022/10/04 13:31:57;;;;;;;3.03;1.27;;;13.50;70.00;;;;;;5035223;28;20087;-73
2022/10/04 13:34:46;;;;;;;1.88;1.40;;;13.50;71.00;;;;;;5035133;28;20036;-67
2022/10/04 13:37:34;;;;;;;4.95;1.40;;;13.60;71.20;;;;;;5001953;28;20041;-67
2022/10/04 13:40:15;;;;;;;2.55;2.30;;;13.60;70.90;;;;;;5016896;28;20021;-67
2022/10/04 13:42:59;;;;;;;4.28;1.73;;;13.60;71.90;;;;;;5035348;28;20025;-73
2022/10/04 13:45:46;;;;;;;5.55;1.65;;;13.50;72.00;;;;;;5034887;28;20020;-73
2022/10/04 13:48:29;;;;;;;1.42;1.23;;;13.60;73.50;;;;;;5035076;28;20032;-67
2022/10/04 13:51:32;;;;;;;1.25;1.15;;;13.30;70.90;;;;;;5034791;28;20029;-67
2022/10/04 13:57:36;;;;;;;1.45;1.33;;;13.00;73.40;;;;;;5034887;28;20099;-67
2022/10/04 14:00:04;;;;;;;4.10;1.70;;;12.90;75.50;;;;;;5033881;28;20013;-68
2022/10/04 14:03:00;;;;;;;3.55;1.83;;;12.70;76.40;;;;;;5034682;28;20029;-67
2022/10/04 14:06:00;;;;;;;3.85;1.52;;;12.50;76.80;;;;;;5016626;28;20014;-73
2022/10/04 14:08:57;;;;;;;2.80;1.70;;;12.50;79.40;;;;;;5027092;28;20033;-72